sensor_id;sensor_type;location;lat;lon;timestamp;P1;durP1;ratioP1;P2;durP2;ratioP2
74320;SDS011;62738;45.772;4.804;2023-02-23T00:00:13;32.80;;;16.88;;
74320;SDS011;62738;45.772;4.804;2023-02-23T00:02:47;29.92;;;16.80;;
74320;SDS011;62738;45.772;4.804;2023-02-23T00:05:15;31.27;;;17.05;;
74320;SDS011;62738;45.772;4.804;2023-02-23T00:07:43;30.27;;;16.45;;
74320;SDS011;62738;45.772;4.804;2023-02-23T00:10:11;30.95;;;17.33;;
74320;SDS011;62738;45.772;4.804;2023-02-23T00:12:40;28.23;;;15.63;;
74320;SDS011;62738;45.772;4.804;2023-02-23T00:15:07;27.23;;;16.35;;
74320;SDS011;62738;45.772;4.804;2023-02-23T00:17:35;28.58;;;17.13;;
74320;SDS011;62738;45.772;4.804;2023-02-23T00:20:08;28.55;;;16.27;;
74320;SDS011;62738;45.772;4.804;2023-02-23T00:22:40;28.73;;;16.67;;
74320;SDS011;62738;45.772;4.804;2023-02-23T00:25:07;31.13;;;17.60;;
74320;SDS011;62738;45.772;4.804;2023-02-23T00:27:37;28.85;;;16.77;;
74320;SDS011;62738;45.772;4.804;2023-02-23T00:30:12;27.08;;;16.13;;
74320;SDS011;62738;45.772;4.804;2023-02-23T00:32:40;30.17;;;17.13;;
74320;SDS011;62738;45.772;4.804;2023-02-23T00:35:07;32.75;;;17.02;;
74320;SDS011;62738;45.772;4.804;2023-02-23T00:37:37;29.17;;;16.60;;
74320;SDS011;62738;45.772;4.804;2023-02-23T00:40:04;28.35;;;15.30;;
74320;SDS011;62738;45.772;4.804;2023-02-23T00:42:39;26.40;;;16.05;;
74320;SDS011;62738;45.772;4.804;2023-02-23T00:45:06;28.75;;;15.32;;
74320;SDS011;62738;45.772;4.804;2023-02-23T00:47:41;27.30;;;15.90;;
74320;SDS011;62738;45.772;4.804;2023-02-23T00:50:10;29.75;;;16.50;;
74320;SDS011;62738;45.772;4.804;2023-02-23T00:52:38;26.23;;;15.93;;
74320;SDS011;62738;45.772;4.804;2023-02-23T00:55:10;29.45;;;15.93;;
74320;SDS011;62738;45.772;4.804;2023-02-23T00:57:41;27.38;;;15.70;;
74320;SDS011;62738;45.772;4.804;2023-02-23T01:00:09;25.73;;;16.30;;
74320;SDS011;62738;45.772;4.804;2023-02-23T01:02:45;23.73;;;15.38;;
74320;SDS011;62738;45.772;4.804;2023-02-23T01:05:13;28.13;;;15.73;;
74320;SDS011;62738;45.772;4.804;2023-02-23T01:07:41;26.15;;;15.77;;
74320;SDS011;62738;45.772;4.804;2023-02-23T01:10:11;27.92;;;16.05;;
74320;SDS011;62738;45.772;4.804;2023-02-23T01:12:51;28.95;;;16.38;;
74320;SDS011;62738;45.772;4.804;2023-02-23T01:15:19;32.45;;;16.35;;
74320;SDS011;62738;45.772;4.804;2023-02-23T01:17:46;30.02;;;17.25;;
74320;SDS011;62738;45.772;4.804;2023-02-23T01:20:14;26.83;;;15.95;;
74320;SDS011;62738;45.772;4.804;2023-02-23T01:22:45;30.13;;;16.20;;
74320;SDS011;62738;45.772;4.804;2023-02-23T01:25:14;28.38;;;16.98;;
74320;SDS011;62738;45.772;4.804;2023-02-23T01:27:41;32.70;;;16.73;;
74320;SDS011;62738;45.772;4.804;2023-02-23T01:30:10;28.80;;;16.52;;
74320;SDS011;62738;45.772;4.804;2023-02-23T01:33:06;26.85;;;16.13;;
74320;SDS011;62738;45.772;4.804;2023-02-23T01:35:33;30.88;;;16.83;;
74320;SDS011;62738;45.772;4.804;2023-02-23T01:38:00;28.65;;;15.98;;
74320;SDS011;62738;45.772;4.804;2023-02-23T01:40:29;29.63;;;16.35;;
74320;SDS011;62738;45.772;4.804;2023-02-23T01:43:20;26.17;;;15.95;;
74320;SDS011;62738;45.772;4.804;2023-02-23T01:46:17;27.33;;;15.32;;
74320;SDS011;62738;45.772;4.804;2023-02-23T01:49:14;26.63;;;15.40;;
74320;SDS011;62738;45.772;4.804;2023-02-23T01:52:12;29.17;;;16.27;;
74320;SDS011;62738;45.772;4.804;2023-02-23T01:55:08;27.40;;;15.90;;
74320;SDS011;62738;45.772;4.804;2023-02-23T01:58:06;29.25;;;15.73;;
74320;SDS011;62738;45.772;4.804;2023-02-23T02:06:14;29.42;;;16.45;;
74320;SDS011;62738;45.772;4.804;2023-02-23T02:08:44;31.15;;;16.92;;
74320;SDS011;62738;45.772;4.804;2023-02-23T02:11:15;28.67;;;16.30;;
74320;SDS011;62738;45.772;4.804;2023-02-23T02:13:57;27.67;;;16.20;;
74320;SDS011;62738;45.772;4.804;2023-02-23T02:16:41;35.15;;;17.42;;
74320;SDS011;62738;45.772;4.804;2023-02-23T02:22:32;29.02;;;15.73;;
74320;SDS011;62738;45.772;4.804;2023-02-23T02:28:47;27.35;;;15.40;;
74320;SDS011;62738;45.772;4.804;2023-02-23T02:46:03;28.67;;;16.90;;
74320;SDS011;62738;45.772;4.804;2023-02-23T02:51:50;28.58;;;15.88;;
74320;SDS011;62738;45.772;4.804;2023-02-23T02:54:22;30.70;;;15.50;;
74320;SDS011;62738;45.772;4.804;2023-02-23T02:56:54;29.42;;;16.27;;
74320;SDS011;62738;45.772;4.804;2023-02-23T02:59:23;29.95;;;16.92;;
74320;SDS011;62738;45.772;4.804;2023-02-23T03:02:12;35.00;;;17.25;;
74320;SDS011;62738;45.772;4.804;2023-02-23T03:05:01;28.83;;;16.88;;
74320;SDS011;62738;45.772;4.804;2023-02-23T03:07:52;30.70;;;17.15;;
74320;SDS011;62738;45.772;4.804;2023-02-23T03:10:46;30.08;;;15.88;;
74320;SDS011;62738;45.772;4.804;2023-02-23T03:23:13;31.10;;;16.95;;
74320;SDS011;62738;45.772;4.804;2023-02-23T03:26:12;31.52;;;16.58;;
74320;SDS011;62738;45.772;4.804;2023-02-23T03:32:15;30.10;;;17.95;;
74320;SDS011;62738;45.772;4.804;2023-02-23T03:35:13;30.58;;;17.95;;
74320;SDS011;62738;45.772;4.804;2023-02-23T03:38:07;32.58;;;18.30;;
74320;SDS011;62738;45.772;4.804;2023-02-23T03:41:02;32.38;;;19.25;;
74320;SDS011;62738;45.772;4.804;2023-02-23T03:43:55;30.17;;;18.10;;
74320;SDS011;62738;45.772;4.804;2023-02-23T03:46:44;35.15;;;17.73;;
74320;SDS011;62738;45.772;4.804;2023-02-23T03:49:36;27.25;;;16.75;;
74320;SDS011;62738;45.772;4.804;2023-02-23T03:52:25;27.90;;;16.13;;
74320;SDS011;62738;45.772;4.804;2023-02-23T03:55:16;31.88;;;18.50;;
74320;SDS011;62738;45.772;4.804;2023-02-23T04:00:53;30.48;;;17.85;;
74320;SDS011;62738;45.772;4.804;2023-02-23T04:03:42;32.58;;;18.15;;
74320;SDS011;62738;45.772;4.804;2023-02-23T04:06:31;34.03;;;19.27;;
74320;SDS011;62738;45.772;4.804;2023-02-23T04:09:20;32.47;;;18.60;;
74320;SDS011;62738;45.772;4.804;2023-02-23T04:15:16;35.05;;;19.45;;
74320;SDS011;62738;45.772;4.804;2023-02-23T04:17:51;35.08;;;20.58;;
74320;SDS011;62738;45.772;4.804;2023-02-23T04:20:18;37.75;;;21.05;;
74320;SDS011;62738;45.772;4.804;2023-02-23T04:22:45;33.33;;;18.75;;
74320;SDS011;62738;45.772;4.804;2023-02-23T04:25:13;33.78;;;19.30;;
74320;SDS011;62738;45.772;4.804;2023-02-23T04:27:42;38.05;;;21.45;;
74320;SDS011;62738;45.772;4.804;2023-02-23T04:30:09;35.10;;;19.98;;
74320;SDS011;62738;45.772;4.804;2023-02-23T04:32:36;35.13;;;19.45;;
74320;SDS011;62738;45.772;4.804;2023-02-23T04:35:03;32.15;;;18.95;;
74320;SDS011;62738;45.772;4.804;2023-02-23T04:37:30;33.22;;;18.75;;
74320;SDS011;62738;45.772;4.804;2023-02-23T04:39:57;33.10;;;19.30;;
74320;SDS011;62738;45.772;4.804;2023-02-23T04:42:24;33.50;;;18.92;;
74320;SDS011;62738;45.772;4.804;2023-02-23T04:44:50;34.90;;;18.70;;
74320;SDS011;62738;45.772;4.804;2023-02-23T04:47:17;33.50;;;18.42;;
74320;SDS011;62738;45.772;4.804;2023-02-23T04:49:44;33.40;;;18.90;;
74320;SDS011;62738;45.772;4.804;2023-02-23T04:52:10;33.58;;;19.17;;
74320;SDS011;62738;45.772;4.804;2023-02-23T04:54:38;34.63;;;19.27;;
74320;SDS011;62738;45.772;4.804;2023-02-23T04:57:05;36.30;;;20.15;;
74320;SDS011;62738;45.772;4.804;2023-02-23T04:59:32;33.55;;;19.02;;
74320;SDS011;62738;45.772;4.804;2023-02-23T05:01:59;32.50;;;18.83;;
74320;SDS011;62738;45.772;4.804;2023-02-23T05:04:26;34.05;;;19.05;;
74320;SDS011;62738;45.772;4.804;2023-02-23T05:06:53;32.42;;;18.75;;
74320;SDS011;62738;45.772;4.804;2023-02-23T05:09:20;30.83;;;17.73;;
74320;SDS011;62738;45.772;4.804;2023-02-23T05:11:46;33.60;;;19.85;;
74320;SDS011;62738;45.772;4.804;2023-02-23T05:14:13;33.47;;;19.08;;
74320;SDS011;62738;45.772;4.804;2023-02-23T05:16:40;29.55;;;17.33;;
74320;SDS011;62738;45.772;4.804;2023-02-23T05:19:06;34.20;;;17.70;;
74320;SDS011;62738;45.772;4.804;2023-02-23T05:21:33;30.33;;;18.40;;
74320;SDS011;62738;45.772;4.804;2023-02-23T05:23:59;34.20;;;18.73;;
74320;SDS011;62738;45.772;4.804;2023-02-23T05:26:26;34.15;;;19.20;;
74320;SDS011;62738;45.772;4.804;2023-02-23T05:28:53;34.05;;;19.35;;
74320;SDS011;62738;45.772;4.804;2023-02-23T05:31:21;32.85;;;19.20;;
74320;SDS011;62738;45.772;4.804;2023-02-23T05:33:49;33.45;;;19.52;;
74320;SDS011;62738;45.772;4.804;2023-02-23T05:36:16;34.25;;;20.80;;
74320;SDS011;62738;45.772;4.804;2023-02-23T05:38:44;35.05;;;19.05;;
74320;SDS011;62738;45.772;4.804;2023-02-23T05:41:12;32.95;;;18.55;;
74320;SDS011;62738;45.772;4.804;2023-02-23T05:43:41;33.22;;;18.83;;
74320;SDS011;62738;45.772;4.804;2023-02-23T05:46:08;33.63;;;19.08;;
74320;SDS011;62738;45.772;4.804;2023-02-23T05:48:37;31.13;;;18.80;;
74320;SDS011;62738;45.772;4.804;2023-02-23T05:51:05;36.53;;;19.60;;
74320;SDS011;62738;45.772;4.804;2023-02-23T05:53:34;32.20;;;18.15;;
74320;SDS011;62738;45.772;4.804;2023-02-23T05:56:02;34.20;;;18.77;;
74320;SDS011;62738;45.772;4.804;2023-02-23T05:58:30;33.38;;;18.75;;
74320;SDS011;62738;45.772;4.804;2023-02-23T06:00:57;30.08;;;18.10;;
74320;SDS011;62738;45.772;4.804;2023-02-23T06:03:23;36.67;;;19.55;;
74320;SDS011;62738;45.772;4.804;2023-02-23T06:05:51;35.95;;;19.50;;
74320;SDS011;62738;45.772;4.804;2023-02-23T06:08:19;35.38;;;18.77;;
74320;SDS011;62738;45.772;4.804;2023-02-23T06:10:46;38.00;;;18.30;;
74320;SDS011;62738;45.772;4.804;2023-02-23T06:13:13;35.85;;;18.27;;
74320;SDS011;62738;45.772;4.804;2023-02-23T06:15:40;34.17;;;17.65;;
74320;SDS011;62738;45.772;4.804;2023-02-23T06:18:09;35.20;;;17.42;;
74320;SDS011;62738;45.772;4.804;2023-02-23T06:20:36;34.45;;;18.42;;
74320;SDS011;62738;45.772;4.804;2023-02-23T06:23:05;30.67;;;16.88;;
74320;SDS011;62738;45.772;4.804;2023-02-23T06:25:32;31.65;;;17.35;;
74320;SDS011;62738;45.772;4.804;2023-02-23T06:27:59;37.40;;;19.17;;
74320;SDS011;62738;45.772;4.804;2023-02-23T06:30:26;33.33;;;17.95;;
74320;SDS011;62738;45.772;4.804;2023-02-23T06:32:53;33.08;;;18.10;;
74320;SDS011;62738;45.772;4.804;2023-02-23T06:35:21;31.77;;;18.13;;
74320;SDS011;62738;45.772;4.804;2023-02-23T06:37:49;32.05;;;18.10;;
74320;SDS011;62738;45.772;4.804;2023-02-23T06:40:16;31.52;;;18.30;;
74320;SDS011;62738;45.772;4.804;2023-02-23T06:42:42;33.03;;;18.70;;
74320;SDS011;62738;45.772;4.804;2023-02-23T06:45:10;38.90;;;20.58;;
74320;SDS011;62738;45.772;4.804;2023-02-23T06:47:37;34.70;;;19.23;;
74320;SDS011;62738;45.772;4.804;2023-02-23T06:50:03;41.90;;;19.48;;
74320;SDS011;62738;45.772;4.804;2023-02-23T06:52:30;33.33;;;18.73;;
74320;SDS011;62738;45.772;4.804;2023-02-23T06:54:57;37.15;;;17.83;;
74320;SDS011;62738;45.772;4.804;2023-02-23T06:57:24;40.67;;;19.08;;
74320;SDS011;62738;45.772;4.804;2023-02-23T06:59:51;33.20;;;18.67;;
74320;SDS011;62738;45.772;4.804;2023-02-23T07:02:18;36.05;;;19.67;;
74320;SDS011;62738;45.772;4.804;2023-02-23T07:04:45;38.10;;;19.08;;
74320;SDS011;62738;45.772;4.804;2023-02-23T07:07:13;36.53;;;19.00;;
74320;SDS011;62738;45.772;4.804;2023-02-23T07:09:40;34.30;;;18.30;;
74320;SDS011;62738;45.772;4.804;2023-02-23T07:12:08;42.83;;;22.90;;
74320;SDS011;62738;45.772;4.804;2023-02-23T07:14:36;44.38;;;21.75;;
74320;SDS011;62738;45.772;4.804;2023-02-23T07:17:03;35.42;;;19.55;;
74320;SDS011;62738;45.772;4.804;2023-02-23T07:19:30;43.65;;;21.60;;
74320;SDS011;62738;45.772;4.804;2023-02-23T07:21:58;36.47;;;20.48;;
74320;SDS011;62738;45.772;4.804;2023-02-23T07:24:24;31.88;;;19.35;;
74320;SDS011;62738;45.772;4.804;2023-02-23T07:26:53;34.00;;;18.00;;
74320;SDS011;62738;45.772;4.804;2023-02-23T07:29:20;33.05;;;18.70;;
74320;SDS011;62738;45.772;4.804;2023-02-23T07:31:49;32.95;;;17.90;;
74320;SDS011;62738;45.772;4.804;2023-02-23T07:34:16;34.95;;;18.52;;
74320;SDS011;62738;45.772;4.804;2023-02-23T07:36:43;29.83;;;16.52;;
74320;SDS011;62738;45.772;4.804;2023-02-23T07:39:09;32.53;;;18.00;;
74320;SDS011;62738;45.772;4.804;2023-02-23T07:41:36;35.63;;;19.55;;
74320;SDS011;62738;45.772;4.804;2023-02-23T07:44:04;32.08;;;17.60;;
74320;SDS011;62738;45.772;4.804;2023-02-23T07:46:31;34.83;;;19.05;;
74320;SDS011;62738;45.772;4.804;2023-02-23T07:48:57;39.17;;;19.02;;
74320;SDS011;62738;45.772;4.804;2023-02-23T07:51:24;33.85;;;18.38;;
74320;SDS011;62738;45.772;4.804;2023-02-23T07:53:51;35.10;;;19.02;;
74320;SDS011;62738;45.772;4.804;2023-02-23T07:56:17;33.75;;;19.52;;
74320;SDS011;62738;45.772;4.804;2023-02-23T07:58:44;37.58;;;19.58;;
74320;SDS011;62738;45.772;4.804;2023-02-23T08:01:11;42.30;;;20.33;;
74320;SDS011;62738;45.772;4.804;2023-02-23T08:03:38;36.03;;;19.65;;
74320;SDS011;62738;45.772;4.804;2023-02-23T08:06:05;36.97;;;19.35;;
74320;SDS011;62738;45.772;4.804;2023-02-23T08:08:34;40.63;;;21.00;;
74320;SDS011;62738;45.772;4.804;2023-02-23T08:11:01;39.53;;;21.42;;
74320;SDS011;62738;45.772;4.804;2023-02-23T08:13:30;36.00;;;21.75;;
74320;SDS011;62738;45.772;4.804;2023-02-23T08:15:57;39.25;;;21.42;;
74320;SDS011;62738;45.772;4.804;2023-02-23T08:18:24;37.38;;;21.45;;
74320;SDS011;62738;45.772;4.804;2023-02-23T08:20:59;42.95;;;21.85;;
74320;SDS011;62738;45.772;4.804;2023-02-23T08:23:30;45.10;;;21.48;;
74320;SDS011;62738;45.772;4.804;2023-02-23T08:25:58;37.15;;;20.98;;
74320;SDS011;62738;45.772;4.804;2023-02-23T08:28:26;45.75;;;24.10;;
74320;SDS011;62738;45.772;4.804;2023-02-23T08:30:53;47.28;;;24.83;;
74320;SDS011;62738;45.772;4.804;2023-02-23T08:33:20;44.55;;;23.70;;
74320;SDS011;62738;45.772;4.804;2023-02-23T08:35:48;48.40;;;23.80;;
74320;SDS011;62738;45.772;4.804;2023-02-23T08:38:14;44.40;;;23.40;;
74320;SDS011;62738;45.772;4.804;2023-02-23T08:40:41;48.53;;;24.38;;
74320;SDS011;62738;45.772;4.804;2023-02-23T08:43:08;46.58;;;23.75;;
74320;SDS011;62738;45.772;4.804;2023-02-23T08:45:35;48.30;;;25.08;;
74320;SDS011;62738;45.772;4.804;2023-02-23T08:48:04;45.88;;;24.08;;
74320;SDS011;62738;45.772;4.804;2023-02-23T08:50:32;44.72;;;24.80;;
74320;SDS011;62738;45.772;4.804;2023-02-23T08:52:58;52.42;;;24.45;;
74320;SDS011;62738;45.772;4.804;2023-02-23T08:55:25;49.75;;;24.00;;
74320;SDS011;62738;45.772;4.804;2023-02-23T08:57:52;48.42;;;24.63;;
74320;SDS011;62738;45.772;4.804;2023-02-23T09:00:19;42.00;;;23.20;;
74320;SDS011;62738;45.772;4.804;2023-02-23T09:02:47;41.78;;;22.25;;
74320;SDS011;62738;45.772;4.804;2023-02-23T09:05:14;42.83;;;23.58;;
74320;SDS011;62738;45.772;4.804;2023-02-23T09:07:41;39.90;;;21.25;;
74320;SDS011;62738;45.772;4.804;2023-02-23T09:10:14;44.28;;;23.10;;
74320;SDS011;62738;45.772;4.804;2023-02-23T09:12:45;43.10;;;22.10;;
74320;SDS011;62738;45.772;4.804;2023-02-23T09:15:12;42.40;;;21.35;;
74320;SDS011;62738;45.772;4.804;2023-02-23T09:17:39;50.38;;;24.67;;
74320;SDS011;62738;45.772;4.804;2023-02-23T09:20:08;50.22;;;25.52;;
74320;SDS011;62738;45.772;4.804;2023-02-23T09:25:06;54.38;;;24.83;;
74320;SDS011;62738;45.772;4.804;2023-02-23T09:27:33;47.72;;;24.15;;
74320;SDS011;62738;45.772;4.804;2023-02-23T09:30:00;51.38;;;24.90;;
74320;SDS011;62738;45.772;4.804;2023-02-23T09:32:27;47.28;;;23.52;;
74320;SDS011;62738;45.772;4.804;2023-02-23T09:34:54;46.53;;;23.38;;
74320;SDS011;62738;45.772;4.804;2023-02-23T09:37:20;46.50;;;22.92;;
74320;SDS011;62738;45.772;4.804;2023-02-23T09:39:47;47.65;;;21.15;;
74320;SDS011;62738;45.772;4.804;2023-02-23T09:42:33;44.50;;;22.38;;
74320;SDS011;62738;45.772;4.804;2023-02-23T09:45:18;44.22;;;21.17;;
74320;SDS011;62738;45.772;4.804;2023-02-23T09:48:10;47.92;;;20.85;;
74320;SDS011;62738;45.772;4.804;2023-02-23T09:50:46;45.75;;;21.17;;
74320;SDS011;62738;45.772;4.804;2023-02-23T09:56:09;40.70;;;20.40;;
74320;SDS011;62738;45.772;4.804;2023-02-23T09:58:41;40.33;;;19.52;;
74320;SDS011;62738;45.772;4.804;2023-02-23T10:01:53;39.08;;;19.27;;
74320;SDS011;62738;45.772;4.804;2023-02-23T10:10:14;42.25;;;19.08;;
74320;SDS011;62738;45.772;4.804;2023-02-23T10:15:56;39.85;;;19.48;;
74320;SDS011;62738;45.772;4.804;2023-02-23T10:18:44;38.22;;;17.85;;
74320;SDS011;62738;45.772;4.804;2023-02-23T10:21:23;41.63;;;19.88;;
74320;SDS011;62738;45.772;4.804;2023-02-23T10:23:59;36.17;;;19.05;;
74320;SDS011;62738;45.772;4.804;2023-02-23T10:26:32;42.47;;;19.45;;
74320;SDS011;62738;45.772;4.804;2023-02-23T10:31:59;38.25;;;17.83;;
74320;SDS011;62738;45.772;4.804;2023-02-23T10:34:30;43.17;;;20.13;;
74320;SDS011;62738;45.772;4.804;2023-02-23T10:36:58;43.42;;;19.58;;
74320;SDS011;62738;45.772;4.804;2023-02-23T10:39:30;42.00;;;19.45;;
74320;SDS011;62738;45.772;4.804;2023-02-23T10:42:01;42.72;;;20.73;;
74320;SDS011;62738;45.772;4.804;2023-02-23T10:44:31;47.88;;;21.58;;
74320;SDS011;62738;45.772;4.804;2023-02-23T10:46:59;43.03;;;20.10;;
74320;SDS011;62738;45.772;4.804;2023-02-23T10:49:34;45.50;;;19.48;;
74320;SDS011;62738;45.772;4.804;2023-02-23T10:52:09;39.78;;;19.38;;
74320;SDS011;62738;45.772;4.804;2023-02-23T11:02:53;40.50;;;19.10;;
74320;SDS011;62738;45.772;4.804;2023-02-23T11:05:29;47.05;;;21.17;;
74320;SDS011;62738;45.772;4.804;2023-02-23T11:08:08;45.28;;;20.20;;
74320;SDS011;62738;45.772;4.804;2023-02-23T11:10:35;42.30;;;20.02;;
74320;SDS011;62738;45.772;4.804;2023-02-23T11:13:02;42.17;;;19.65;;
74320;SDS011;62738;45.772;4.804;2023-02-23T11:15:32;41.53;;;19.65;;
74320;SDS011;62738;45.772;4.804;2023-02-23T11:18:20;51.03;;;21.00;;
74320;SDS011;62738;45.772;4.804;2023-02-23T11:20:49;46.60;;;20.30;;
74320;SDS011;62738;45.772;4.804;2023-02-23T11:23:20;46.17;;;19.40;;
74320;SDS011;62738;45.772;4.804;2023-02-23T11:25:55;43.90;;;20.35;;
74320;SDS011;62738;45.772;4.804;2023-02-23T11:28:30;45.92;;;21.48;;
74320;SDS011;62738;45.772;4.804;2023-02-23T11:33:41;41.90;;;21.13;;
74320;SDS011;62738;45.772;4.804;2023-02-23T11:36:27;47.65;;;21.77;;
74320;SDS011;62738;45.772;4.804;2023-02-23T11:39:05;44.90;;;21.92;;
74320;SDS011;62738;45.772;4.804;2023-02-23T11:41:44;44.22;;;21.92;;
74320;SDS011;62738;45.772;4.804;2023-02-23T11:44:20;42.25;;;21.58;;
74320;SDS011;62738;45.772;4.804;2023-02-23T11:46:50;46.67;;;23.33;;
74320;SDS011;62738;45.772;4.804;2023-02-23T11:49:22;49.20;;;23.02;;
74320;SDS011;62738;45.772;4.804;2023-02-23T11:51:55;50.17;;;23.77;;
74320;SDS011;62738;45.772;4.804;2023-02-23T11:54:26;48.08;;;23.42;;
74320;SDS011;62738;45.772;4.804;2023-02-23T11:56:55;43.42;;;22.63;;
74320;SDS011;62738;45.772;4.804;2023-02-23T11:59:33;47.05;;;23.73;;
74320;SDS011;62738;45.772;4.804;2023-02-23T12:04:48;47.75;;;24.60;;
74320;SDS011;62738;45.772;4.804;2023-02-23T12:07:20;49.65;;;24.63;;
74320;SDS011;62738;45.772;4.804;2023-02-23T12:09:56;52.97;;;24.00;;
74320;SDS011;62738;45.772;4.804;2023-02-23T12:12:48;42.13;;;22.40;;
74320;SDS011;62738;45.772;4.804;2023-02-23T12:15:26;48.47;;;22.95;;
74320;SDS011;62738;45.772;4.804;2023-02-23T12:18:03;43.25;;;23.58;;
74320;SDS011;62738;45.772;4.804;2023-02-23T12:20:51;42.97;;;21.60;;
74320;SDS011;62738;45.772;4.804;2023-02-23T12:23:28;40.78;;;21.17;;
74320;SDS011;62738;45.772;4.804;2023-02-23T12:26:00;40.13;;;21.35;;
74320;SDS011;62738;45.772;4.804;2023-02-23T12:28:41;40.55;;;21.00;;
74320;SDS011;62738;45.772;4.804;2023-02-23T12:31:30;43.17;;;20.70;;
74320;SDS011;62738;45.772;4.804;2023-02-23T12:34:11;43.08;;;21.45;;
74320;SDS011;62738;45.772;4.804;2023-02-23T12:36:46;45.25;;;21.60;;
74320;SDS011;62738;45.772;4.804;2023-02-23T12:39:30;39.42;;;21.65;;
74320;SDS011;62738;45.772;4.804;2023-02-23T12:44:44;39.05;;;20.60;;
74320;SDS011;62738;45.772;4.804;2023-02-23T12:47:30;34.28;;;19.08;;
74320;SDS011;62738;45.772;4.804;2023-02-23T12:50:05;40.25;;;20.75;;
74320;SDS011;62738;45.772;4.804;2023-02-23T12:52:46;41.40;;;22.25;;
74320;SDS011;62738;45.772;4.804;2023-02-23T12:55:28;41.35;;;21.33;;
74320;SDS011;62738;45.772;4.804;2023-02-23T12:58:42;39.20;;;21.00;;
74320;SDS011;62738;45.772;4.804;2023-02-23T13:20:17;40.85;;;20.65;;
74320;SDS011;62738;45.772;4.804;2023-02-23T13:22:53;38.05;;;19.27;;
74320;SDS011;62738;45.772;4.804;2023-02-23T13:25:33;40.10;;;19.60;;
74320;SDS011;62738;45.772;4.804;2023-02-23T13:28:11;40.65;;;19.88;;
74320;SDS011;62738;45.772;4.804;2023-02-23T13:30:43;34.67;;;19.23;;
74320;SDS011;62738;45.772;4.804;2023-02-23T13:33:20;40.85;;;19.35;;
74320;SDS011;62738;45.772;4.804;2023-02-23T13:36:07;37.03;;;18.77;;
74320;SDS011;62738;45.772;4.804;2023-02-23T13:44:26;38.47;;;18.73;;
74320;SDS011;62738;45.772;4.804;2023-02-23T13:46:59;34.20;;;17.83;;
74320;SDS011;62738;45.772;4.804;2023-02-23T13:52:09;32.83;;;17.27;;
74320;SDS011;62738;45.772;4.804;2023-02-23T13:54:53;36.33;;;18.50;;
74320;SDS011;62738;45.772;4.804;2023-02-23T13:57:22;32.90;;;17.80;;
74320;SDS011;62738;45.772;4.804;2023-02-23T14:05:06;35.53;;;17.17;;
74320;SDS011;62738;45.772;4.804;2023-02-23T14:07:44;34.90;;;18.10;;
74320;SDS011;62738;45.772;4.804;2023-02-23T14:13:04;30.85;;;16.98;;
74320;SDS011;62738;45.772;4.804;2023-02-23T14:18:01;32.80;;;17.17;;
74320;SDS011;62738;45.772;4.804;2023-02-23T14:23:51;34.08;;;17.65;;
74320;SDS011;62738;45.772;4.804;2023-02-23T14:31:54;34.60;;;17.13;;
74320;SDS011;62738;45.772;4.804;2023-02-23T14:34:22;36.65;;;18.17;;
74320;SDS011;62738;45.772;4.804;2023-02-23T14:39:48;34.20;;;17.33;;
74320;SDS011;62738;45.772;4.804;2023-02-23T14:42:19;34.88;;;17.80;;
74320;SDS011;62738;45.772;4.804;2023-02-23T14:44:49;36.08;;;18.85;;
74320;SDS011;62738;45.772;4.804;2023-02-23T14:47:18;36.25;;;17.98;;
74320;SDS011;62738;45.772;4.804;2023-02-23T14:49:51;33.63;;;17.17;;
74320;SDS011;62738;45.772;4.804;2023-02-23T14:52:26;31.45;;;17.45;;
74320;SDS011;62738;45.772;4.804;2023-02-23T14:55:13;37.42;;;17.80;;
74320;SDS011;62738;45.772;4.804;2023-02-23T14:57:46;32.58;;;17.45;;
74320;SDS011;62738;45.772;4.804;2023-02-23T15:02:51;32.00;;;15.35;;
74320;SDS011;62738;45.772;4.804;2023-02-23T15:05:21;23.60;;;12.38;;
74320;SDS011;62738;45.772;4.804;2023-02-23T15:07:50;23.13;;;12.48;;
74320;SDS011;62738;45.772;4.804;2023-02-23T15:10:19;24.58;;;12.27;;
74320;SDS011;62738;45.772;4.804;2023-02-23T15:12:50;25.73;;;11.77;;
74320;SDS011;62738;45.772;4.804;2023-02-23T15:15:19;23.27;;;11.77;;
74320;SDS011;62738;45.772;4.804;2023-02-23T15:17:49;24.20;;;11.90;;
74320;SDS011;62738;45.772;4.804;2023-02-23T15:20:20;25.95;;;11.73;;
74320;SDS011;62738;45.772;4.804;2023-02-23T15:22:58;26.42;;;12.43;;
74320;SDS011;62738;45.772;4.804;2023-02-23T15:25:35;29.60;;;12.30;;
74320;SDS011;62738;45.772;4.804;2023-02-23T15:28:10;22.17;;;12.15;;
74320;SDS011;62738;45.772;4.804;2023-02-23T15:30:49;24.73;;;11.45;;
74320;SDS011;62738;45.772;4.804;2023-02-23T15:33:16;25.85;;;11.45;;
74320;SDS011;62738;45.772;4.804;2023-02-23T15:35:55;24.73;;;11.63;;
74320;SDS011;62738;45.772;4.804;2023-02-23T15:38:41;25.98;;;11.52;;
74320;SDS011;62738;45.772;4.804;2023-02-23T15:41:17;22.17;;;10.60;;
74320;SDS011;62738;45.772;4.804;2023-02-23T15:43:50;19.75;;;11.32;;
74320;SDS011;62738;45.772;4.804;2023-02-23T15:46:21;29.25;;;11.70;;
74320;SDS011;62738;45.772;4.804;2023-02-23T15:48:52;22.00;;;10.05;;
74320;SDS011;62738;45.772;4.804;2023-02-23T15:51:23;19.80;;;9.50;;
74320;SDS011;62738;45.772;4.804;2023-02-23T15:53:58;23.58;;;11.07;;
74320;SDS011;62738;45.772;4.804;2023-02-23T15:56:27;23.25;;;9.52;;
74320;SDS011;62738;45.772;4.804;2023-02-23T15:58:57;20.13;;;9.40;;
74320;SDS011;62738;45.772;4.804;2023-02-23T16:01:29;19.60;;;9.88;;
74320;SDS011;62738;45.772;4.804;2023-02-23T16:06:32;21.50;;;9.68;;
74320;SDS011;62738;45.772;4.804;2023-02-23T16:11:32;21.25;;;9.73;;
74320;SDS011;62738;45.772;4.804;2023-02-23T16:14:01;19.40;;;8.70;;
74320;SDS011;62738;45.772;4.804;2023-02-23T16:16:32;23.05;;;9.73;;
74320;SDS011;62738;45.772;4.804;2023-02-23T16:19:00;21.77;;;9.13;;
74320;SDS011;62738;45.772;4.804;2023-02-23T16:21:29;18.80;;;9.20;;
74320;SDS011;62738;45.772;4.804;2023-02-23T16:23:58;23.08;;;9.65;;
74320;SDS011;62738;45.772;4.804;2023-02-23T16:26:28;20.70;;;9.80;;
74320;SDS011;62738;45.772;4.804;2023-02-23T16:29:00;21.48;;;9.85;;
74320;SDS011;62738;45.772;4.804;2023-02-23T16:31:40;21.45;;;9.98;;
74320;SDS011;62738;45.772;4.804;2023-02-23T16:34:34;21.60;;;9.95;;
74320;SDS011;62738;45.772;4.804;2023-02-23T16:37:17;23.70;;;9.85;;
74320;SDS011;62738;45.772;4.804;2023-02-23T16:39:52;16.65;;;9.10;;
74320;SDS011;62738;45.772;4.804;2023-02-23T16:42:27;17.83;;;9.75;;
74320;SDS011;62738;45.772;4.804;2023-02-23T16:44:56;21.08;;;9.95;;
74320;SDS011;62738;45.772;4.804;2023-02-23T16:49:53;22.42;;;9.88;;
74320;SDS011;62738;45.772;4.804;2023-02-23T16:52:21;22.75;;;10.00;;
74320;SDS011;62738;45.772;4.804;2023-02-23T16:54:49;21.77;;;10.18;;
74320;SDS011;62738;45.772;4.804;2023-02-23T16:57:23;22.85;;;10.98;;
74320;SDS011;62738;45.772;4.804;2023-02-23T16:59:52;23.75;;;10.07;;
74320;SDS011;62738;45.772;4.804;2023-02-23T17:02:19;22.30;;;9.48;;
74320;SDS011;62738;45.772;4.804;2023-02-23T17:04:48;23.65;;;9.93;;
74320;SDS011;62738;45.772;4.804;2023-02-23T17:07:18;17.23;;;9.00;;
74320;SDS011;62738;45.772;4.804;2023-02-23T17:09:49;19.13;;;8.55;;
74320;SDS011;62738;45.772;4.804;2023-02-23T17:12:15;17.00;;;8.73;;
74320;SDS011;62738;45.772;4.804;2023-02-23T17:14:47;17.23;;;8.32;;
74320;SDS011;62738;45.772;4.804;2023-02-23T17:17:15;19.63;;;8.43;;